createdAt,value
2023-08-05T00:01:42.584Z,93.53
2023-08-05T00:04:10.086Z,93.36
2023-08-05T00:06:38.795Z,93.43
2023-08-05T00:09:05.326Z,93.54
2023-08-05T00:11:31.868Z,93.58
2023-08-05T00:13:58.733Z,93.51
2023-08-05T00:16:26.044Z,93.09
2023-08-05T00:18:53.625Z,92.80
2023-08-05T00:21:21.526Z,92.93
2023-08-05T00:23:49.407Z,92.68
2023-08-05T00:26:17.396Z,92.67
2023-08-05T00:28:44.152Z,92.40
2023-08-05T00:31:10.713Z,92.47
2023-08-05T00:33:38.230Z,92.45
2023-08-05T00:36:07.619Z,92.91
2023-08-05T00:38:34.153Z,93.30
2023-08-05T00:41:00.632Z,93.60
2023-08-05T00:43:27.201Z,93.56
2023-08-05T00:45:54.902Z,93.72
2023-08-05T00:48:23.353Z,94.21
2023-08-05T00:50:49.870Z,94.27
2023-08-05T00:53:17.957Z,94.37
2023-08-05T00:55:44.706Z,94.61
2023-08-05T00:58:11.965Z,94.57
2023-08-05T01:00:38.478Z,94.89
2023-08-05T01:03:08.008Z,94.89
2023-08-05T01:05:36.568Z,94.45
2023-08-05T01:08:04.215Z,95.16
2023-08-05T01:10:30.847Z,94.87
2023-08-05T01:12:58.376Z,95.17
2023-08-05T01:15:24.915Z,95.02
2023-08-05T01:17:55.456Z,94.59
2023-08-05T01:20:28.110Z,94.51
2023-08-05T01:23:08.495Z,94.67
2023-08-05T01:25:38.334Z,94.45
2023-08-05T01:28:05.088Z,95.02
2023-08-05T01:30:33.916Z,95.35
2023-08-05T01:33:03.547Z,95.55
2023-08-05T01:35:30.519Z,95.69
2023-08-05T01:37:57.026Z,95.83
2023-08-05T01:40:29.172Z,95.06
2023-08-05T01:42:59.466Z,95.23
2023-08-05T01:45:26.298Z,95.54
2023-08-05T01:47:53.227Z,95.14
2023-08-05T01:50:20.838Z,95.20
2023-08-05T01:52:49.573Z,95.54
2023-08-05T01:55:16.141Z,95.66
2023-08-05T01:57:42.674Z,95.86
2023-08-05T02:00:10.042Z,95.71
2023-08-05T02:02:44.780Z,95.84
2023-08-05T02:05:12.753Z,95.92
2023-08-05T02:07:39.300Z,96.11
2023-08-05T02:10:06.330Z,96.30
2023-08-05T02:12:35.071Z,96.40
2023-08-05T02:15:01.624Z,96.44
2023-08-05T02:17:28.201Z,96.04
2023-08-05T02:19:54.712Z,96.09
2023-08-05T02:22:21.258Z,95.91
2023-08-05T02:24:47.792Z,95.93
2023-08-05T02:27:14.456Z,96.02
2023-08-05T02:29:41.114Z,96.11
2023-08-05T02:32:10.525Z,96.04
2023-08-05T02:34:37.144Z,95.93
2023-08-05T02:37:03.858Z,95.85
2023-08-05T02:39:30.360Z,95.99
2023-08-05T02:41:57.170Z,96.08
2023-08-05T02:44:23.741Z,96.07
2023-08-05T02:46:50.875Z,96.15
2023-08-05T02:49:17.760Z,96.25
2023-08-05T02:51:44.264Z,96.93
2023-08-05T02:54:10.809Z,96.31
2023-08-05T02:56:38.665Z,96.66
2023-08-05T02:59:05.214Z,96.67
2023-08-05T03:01:31.887Z,96.77
2023-08-05T03:03:58.492Z,97.11
2023-08-05T03:06:24.976Z,96.81
2023-08-05T03:08:51.898Z,97.04
2023-08-05T03:11:18.527Z,96.87
2023-08-05T03:13:45.179Z,97.05
2023-08-05T03:16:13.350Z,96.76
2023-08-05T03:18:53.054Z,96.56
2023-08-05T03:21:20.125Z,96.97
2023-08-05T03:23:46.697Z,96.61
2023-08-05T03:26:13.967Z,97.01
2023-08-05T03:28:41.406Z,97.21
2023-08-05T03:31:09.043Z,97.04
2023-08-05T03:33:35.718Z,97.18
2023-08-05T03:36:03.878Z,97.20
2023-08-05T03:38:31.376Z,97.21
2023-08-05T03:41:02.369Z,97.44
2023-08-05T03:43:29.169Z,97.35
2023-08-05T03:45:55.774Z,97.62
2023-08-05T03:48:22.486Z,97.53
2023-08-05T03:50:50.716Z,97.63
2023-08-05T03:53:17.424Z,97.42
2023-08-05T03:55:44.101Z,97.32
2023-08-05T03:58:12.468Z,97.48
2023-08-05T04:00:44.084Z,97.33
2023-08-05T04:03:10.945Z,97.45
2023-08-05T04:05:37.591Z,97.39
2023-08-05T04:08:04.636Z,97.60
2023-08-05T04:10:32.205Z,97.39
2023-08-05T04:12:58.832Z,97.38
2023-08-05T04:15:29.004Z,97.43
2023-08-05T04:18:00.956Z,97.72
2023-08-05T04:20:31.465Z,97.74
2023-08-05T04:22:58.124Z,97.69
2023-08-05T04:25:26.189Z,97.60
2023-08-05T04:27:52.799Z,97.63
2023-08-05T04:30:19.366Z,97.76
2023-08-05T04:32:46.035Z,97.38
2023-08-05T04:35:12.658Z,97.49
2023-08-05T04:37:39.200Z,97.74
2023-08-05T04:40:06.062Z,97.64
2023-08-05T04:42:32.579Z,97.53
2023-08-05T04:44:59.414Z,97.58
2023-08-05T04:47:26.002Z,97.51
2023-08-05T04:49:52.595Z,97.62
2023-08-05T04:52:19.169Z,97.72
2023-08-05T04:54:46.063Z,97.53
2023-08-05T04:57:13.826Z,97.54
2023-08-05T04:59:41.145Z,97.84
2023-08-05T05:02:08.135Z,97.88
2023-08-05T05:04:34.910Z,97.98
2023-08-05T05:07:01.503Z,98.05
2023-08-05T05:09:28.803Z,97.92
2023-08-05T05:11:55.475Z,98.45
2023-08-05T05:14:22.622Z,98.22
2023-08-05T05:16:49.602Z,98.05
2023-08-05T05:19:16.586Z,98.14
2023-08-05T05:21:43.289Z,98.38
2023-08-05T05:24:10.079Z,98.27
2023-08-05T05:26:38.843Z,97.99
2023-08-05T05:29:05.645Z,97.89
2023-08-05T05:31:32.214Z,98.30
2023-08-05T05:33:58.896Z,98.12
2023-08-05T05:36:25.512Z,98.14
2023-08-05T05:38:52.406Z,98.28
2023-08-05T05:41:19.341Z,98.67
2023-08-05T05:43:45.868Z,98.52
2023-08-05T05:46:14.640Z,98.73
2023-08-05T05:48:42.096Z,98.72
2023-08-05T05:51:08.738Z,98.71
2023-08-05T05:53:35.313Z,98.90
2023-08-05T05:56:01.918Z,99.37
2023-08-05T05:58:29.089Z,99.11
2023-08-05T06:00:56.453Z,99.16
2023-08-05T06:03:23.428Z,99.57
2023-08-05T06:05:51.880Z,99.39
2023-08-05T06:08:19.202Z,99.40
2023-08-05T06:10:46.307Z,99.50
2023-08-05T06:13:12.863Z,99.19
2023-08-05T06:15:42.679Z,99.58
2023-08-05T06:18:10.513Z,99.93
2023-08-05T06:20:38.005Z,99.33
2023-08-05T06:23:04.988Z,99.79
2023-08-05T06:25:31.539Z,99.61
2023-08-05T06:27:58.667Z,99.93
2023-08-05T06:30:25.257Z,99.73
2023-08-05T06:32:52.919Z,99.80
2023-08-05T06:35:19.893Z,99.86
2023-08-05T06:37:46.446Z,99.78
2023-08-05T06:40:13.306Z,99.86
2023-08-05T06:42:39.771Z,100.00
2023-08-05T06:45:07.206Z,99.77
2023-08-05T06:47:33.973Z,99.49
2023-08-05T06:50:01.361Z,98.92
2023-08-05T06:52:28.518Z,98.88
2023-08-05T06:54:56.822Z,98.64
2023-08-05T06:57:25.717Z,98.15
2023-08-05T06:59:53.843Z,97.79
2023-08-05T07:02:20.438Z,97.22
2023-08-05T07:04:46.945Z,97.61
2023-08-05T07:07:13.487Z,96.35
2023-08-05T07:09:40.044Z,95.59
2023-08-05T07:12:06.897Z,94.89
2023-08-05T07:14:34.696Z,94.37
2023-08-05T07:17:01.309Z,91.37
2023-08-05T07:19:27.863Z,89.16
2023-08-05T07:21:55.650Z,88.08
2023-08-05T07:24:22.166Z,88.74
2023-08-05T07:26:48.722Z,87.96
2023-08-05T07:29:15.309Z,87.63
2023-08-05T07:31:41.843Z,86.49
2023-08-05T07:34:10.553Z,86.57
2023-08-05T07:36:37.884Z,85.28
2023-08-05T07:39:08.396Z,82.07
2023-08-05T07:41:35.093Z,84.73
2023-08-05T07:44:02.803Z,84.78
2023-08-05T07:46:33.300Z,82.88
2023-08-05T07:49:01.373Z,83.81
2023-08-05T07:51:29.869Z,79.76
2023-08-05T07:53:58.689Z,79.96
2023-08-05T07:56:25.487Z,80.17
2023-08-05T07:58:52.673Z,81.13
2023-08-05T08:01:23.606Z,80.29
2023-08-05T08:03:55.444Z,79.72
2023-08-05T08:06:22.902Z,78.78
2023-08-05T08:08:49.875Z,80.73
2023-08-05T08:11:18.707Z,80.05
2023-08-05T08:13:45.426Z,78.25
2023-08-05T08:16:12.415Z,80.02
2023-08-05T08:18:39.033Z,80.10
2023-08-05T08:21:08.411Z,80.23
2023-08-05T08:23:35.134Z,80.65
2023-08-05T08:26:02.498Z,79.93
2023-08-05T08:28:29.070Z,80.78
2023-08-05T08:30:57.169Z,75.23
2023-08-05T08:33:30.230Z,75.79
2023-08-05T08:35:56.787Z,71.80
2023-08-05T08:38:23.994Z,71.10
2023-08-05T08:40:52.748Z,71.44
2023-08-05T08:43:22.537Z,70.12
2023-08-05T08:45:52.488Z,68.51
2023-08-05T08:48:22.402Z,66.81
2023-08-05T08:50:53.584Z,66.58
2023-08-05T08:53:21.094Z,69.20
2023-08-05T08:55:47.764Z,69.86
2023-08-05T08:58:14.379Z,67.52
2023-08-05T09:00:41.267Z,69.26
2023-08-05T09:03:08.124Z,66.50
2023-08-05T09:05:49.496Z,65.13
2023-08-05T09:08:16.301Z,65.08
2023-08-05T09:10:44.929Z,62.88
2023-08-05T09:13:12.105Z,63.19
2023-08-05T09:15:40.011Z,61.79
2023-08-05T09:18:09.084Z,64.48
2023-08-05T09:20:37.154Z,62.14
2023-08-05T09:23:12.878Z,61.37
2023-08-05T09:25:41.990Z,63.27
2023-08-05T09:28:09.327Z,63.31
2023-08-05T09:30:36.410Z,62.47
2023-08-05T09:33:03.747Z,63.61
2023-08-05T09:35:30.666Z,63.42
2023-08-05T09:37:57.381Z,62.51
2023-08-05T09:40:29.881Z,64.15
2023-08-05T09:43:00.609Z,64.80
2023-08-05T09:45:29.481Z,63.95
2023-08-05T09:48:09.040Z,63.84
2023-08-05T09:50:38.625Z,64.05
2023-08-05T09:53:17.883Z,63.25
2023-08-05T09:55:44.984Z,64.39
2023-08-05T09:58:14.311Z,63.51
2023-08-05T10:00:42.304Z,63.60
2023-08-05T10:03:14.509Z,62.98
2023-08-05T10:05:45.597Z,63.23
2023-08-05T10:08:17.502Z,62.99
2023-08-05T10:10:45.441Z,63.51
2023-08-05T10:13:18.494Z,62.83
2023-08-05T10:15:50.205Z,63.09
2023-08-05T10:18:18.840Z,63.08
2023-08-05T10:20:51.068Z,64.42
2023-08-05T10:23:17.805Z,63.26
2023-08-05T10:25:50.278Z,63.79
2023-08-05T10:28:29.087Z,64.40
2023-08-05T10:30:56.120Z,64.02
2023-08-05T10:33:23.613Z,63.63
2023-08-05T10:35:51.007Z,64.16
2023-08-05T10:38:24.794Z,63.84
2023-08-05T10:41:03.380Z,65.48
2023-08-05T10:43:39.796Z,63.12
2023-08-05T10:46:06.389Z,62.17
2023-08-05T10:48:46.699Z,60.86
2023-08-05T10:51:21.348Z,61.99
2023-08-05T10:53:56.910Z,63.72
2023-08-05T10:56:37.552Z,64.18
2023-08-05T10:59:05.212Z,62.66
2023-08-05T11:01:57.876Z,63.53
2023-08-05T11:04:29.704Z,63.65
2023-08-05T11:06:57.755Z,62.52
2023-08-05T11:09:24.474Z,63.23
2023-08-05T11:11:51.217Z,63.68
2023-08-05T11:14:20.173Z,69.03
2023-08-05T11:16:50.260Z,73.05
2023-08-05T11:19:16.865Z,78.84
2023-08-05T11:21:47.307Z,79.21
2023-08-05T11:24:21.332Z,81.93
2023-08-05T11:26:48.581Z,81.88
2023-08-05T11:29:15.571Z,84.62
2023-08-05T11:31:52.573Z,82.17
2023-08-05T11:34:22.438Z,83.61
2023-08-05T11:37:00.493Z,82.07
2023-08-05T11:39:27.574Z,82.63
2023-08-05T11:41:55.297Z,80.94
2023-08-05T11:44:22.064Z,82.75
2023-08-05T11:47:00.249Z,83.59
2023-08-05T11:49:27.937Z,84.93
2023-08-05T11:51:55.012Z,85.64
2023-08-05T11:54:39.042Z,82.41
2023-08-05T11:57:19.812Z,84.51
2023-08-05T11:59:49.548Z,85.46
2023-08-05T12:02:18.733Z,84.73
2023-08-05T12:04:47.055Z,84.59
2023-08-05T12:07:18.635Z,80.89
2023-08-05T12:09:46.483Z,82.60
2023-08-05T12:12:18.173Z,83.81
2023-08-05T12:14:45.171Z,82.14
2023-08-05T12:17:11.833Z,82.20
2023-08-05T12:19:43.068Z,81.70
2023-08-05T12:22:10.757Z,79.90
2023-08-05T12:24:49.390Z,82.66
2023-08-05T12:27:17.045Z,80.50
2023-08-05T12:29:43.564Z,79.81
2023-08-05T12:32:12.250Z,79.01
2023-08-05T12:34:38.802Z,80.58
2023-08-05T12:37:06.478Z,80.41
2023-08-05T12:39:33.279Z,79.79
2023-08-05T12:41:59.800Z,79.49
2023-08-05T12:44:26.558Z,82.29
2023-08-05T12:46:53.983Z,82.16
2023-08-05T12:49:20.557Z,80.18
2023-08-05T12:51:47.397Z,79.63
2023-08-05T12:54:13.903Z,75.94
2023-08-05T12:56:40.479Z,78.71
2023-08-05T12:59:07.164Z,77.68
2023-08-05T13:01:33.792Z,79.09
2023-08-05T13:04:00.552Z,78.47
2023-08-05T13:06:27.151Z,80.22
2023-08-05T13:08:53.653Z,79.19
2023-08-05T13:11:20.206Z,80.61
2023-08-05T13:13:46.729Z,80.88
2023-08-05T13:16:13.325Z,83.62
2023-08-05T13:18:39.850Z,81.46
2023-08-05T13:21:07.403Z,83.64
2023-08-05T13:23:33.937Z,82.85
2023-08-05T13:26:00.487Z,83.40
2023-08-05T13:28:27.000Z,82.89
2023-08-05T13:30:53.572Z,84.18
2023-08-05T13:33:20.530Z,84.18
2023-08-05T13:35:47.739Z,83.54
2023-08-05T13:38:14.310Z,85.11
2023-08-05T13:40:40.819Z,81.64
2023-08-05T13:43:08.398Z,82.39
2023-08-05T13:45:35.167Z,80.17
2023-08-05T13:48:01.712Z,80.53
2023-08-05T13:50:28.247Z,80.60
2023-08-05T13:52:54.767Z,81.10
2023-08-05T13:55:24.352Z,81.34
2023-08-05T13:57:53.422Z,82.12
2023-08-05T14:00:20.051Z,81.30
2023-08-05T14:02:47.812Z,81.96
2023-08-05T14:05:14.549Z,82.18
2023-08-05T14:07:41.154Z,82.54
2023-08-05T14:10:08.300Z,82.79
2023-08-05T14:12:34.797Z,80.34
2023-08-05T14:15:01.495Z,80.49
2023-08-05T14:17:28.093Z,81.44
2023-08-05T14:19:54.601Z,80.84
2023-08-05T14:22:21.120Z,81.09
2023-08-05T14:24:47.638Z,82.10
2023-08-05T14:27:14.305Z,83.14
2023-08-05T14:29:40.903Z,82.49
2023-08-05T14:32:07.825Z,81.10
2023-08-05T14:34:34.371Z,83.13
2023-08-05T14:37:00.892Z,81.26
2023-08-05T14:39:27.596Z,82.03
2023-08-05T14:41:54.765Z,82.79
2023-08-05T14:44:23.599Z,79.24
2023-08-05T14:46:51.666Z,80.44
2023-08-05T14:49:18.197Z,79.82
2023-08-05T14:51:44.785Z,80.00
2023-08-05T14:54:11.657Z,82.47
2023-08-05T14:56:39.374Z,80.66
2023-08-05T14:59:06.004Z,81.34
2023-08-05T15:01:32.668Z,83.37
2023-08-05T15:04:00.068Z,83.79
2023-08-05T15:06:27.563Z,80.86
2023-08-05T15:08:56.770Z,80.05
2023-08-05T15:11:23.315Z,79.78
2023-08-05T15:13:49.895Z,81.42
2023-08-05T15:16:16.700Z,81.04
2023-08-05T15:18:43.420Z,81.74
2023-08-05T15:21:10.469Z,81.40
2023-08-05T15:23:37.022Z,83.77
2023-08-05T15:26:04.732Z,81.46
2023-08-05T15:28:32.114Z,82.20
2023-08-05T15:30:58.652Z,82.13
2023-08-05T15:33:25.250Z,83.73
2023-08-05T15:35:52.019Z,84.66
2023-08-05T15:38:18.679Z,82.21
2023-08-05T15:40:45.310Z,81.93
2023-08-05T15:43:13.171Z,79.61
2023-08-05T15:45:41.504Z,80.96
2023-08-05T15:48:08.235Z,81.08
2023-08-05T15:50:34.986Z,80.12
2023-08-05T15:53:01.747Z,78.73
2023-08-05T15:55:28.279Z,78.47
2023-08-05T15:57:54.784Z,78.19
2023-08-05T16:00:21.380Z,79.32
2023-08-05T16:02:50.658Z,79.87
2023-08-05T16:05:17.286Z,80.40
2023-08-05T16:07:43.893Z,81.37
2023-08-05T16:10:11.398Z,79.47
2023-08-05T16:12:38.343Z,81.29
2023-08-05T16:15:05.713Z,80.35
2023-08-05T16:17:33.504Z,76.22
2023-08-05T16:20:04.265Z,77.26
2023-08-05T16:22:30.828Z,76.77
2023-08-05T16:24:58.801Z,74.80
2023-08-05T16:27:25.417Z,74.83
2023-08-05T16:29:52.654Z,72.40
2023-08-05T16:32:19.290Z,73.75
2023-08-05T16:34:45.978Z,73.09
2023-08-05T16:37:12.490Z,73.28
2023-08-05T16:39:38.977Z,73.15
2023-08-05T16:42:06.550Z,72.45
2023-08-05T16:44:36.195Z,75.64
2023-08-05T16:47:03.136Z,75.30
2023-08-05T16:49:29.752Z,73.64
2023-08-05T16:51:56.757Z,73.46
2023-08-05T16:54:23.408Z,75.85
2023-08-05T16:56:52.981Z,74.78
2023-08-05T16:59:20.500Z,76.27
2023-08-05T17:01:47.012Z,76.73
2023-08-05T17:04:16.435Z,74.31
2023-08-05T17:06:43.268Z,76.11
2023-08-05T17:09:09.950Z,75.44
2023-08-05T17:11:37.562Z,77.41
2023-08-05T17:14:04.153Z,77.46
2023-08-05T17:16:30.851Z,76.58
2023-08-05T17:18:57.389Z,77.02
2023-08-05T17:21:23.959Z,77.97
2023-08-05T17:23:50.502Z,78.02
2023-08-05T17:26:16.994Z,79.06
2023-08-05T17:28:43.489Z,76.82
2023-08-05T17:31:12.229Z,79.29
2023-08-05T17:33:38.961Z,79.34
2023-08-05T17:36:05.720Z,80.50
2023-08-05T17:38:32.217Z,79.91
2023-08-05T17:40:59.983Z,81.89
2023-08-05T17:43:26.583Z,81.41
2023-08-05T17:45:59.669Z,82.74
2023-08-05T17:48:26.460Z,82.58
2023-08-05T17:51:00.507Z,81.46
2023-08-05T17:53:27.302Z,82.27
2023-08-05T17:55:54.042Z,81.44
2023-08-05T17:58:21.250Z,81.90
2023-08-05T18:00:47.848Z,82.43
2023-08-05T18:03:14.392Z,82.94
2023-08-05T18:05:40.992Z,82.98
2023-08-05T18:08:07.626Z,83.04
2023-08-05T18:10:34.222Z,83.72
2023-08-05T18:13:01.057Z,83.21
2023-08-05T18:15:27.606Z,83.40
2023-08-05T18:17:54.236Z,83.93
2023-08-05T18:20:21.842Z,84.77
2023-08-05T18:22:49.413Z,84.66
2023-08-05T18:25:16.155Z,84.55
2023-08-05T18:27:42.745Z,84.51
2023-08-05T18:30:09.792Z,84.48
2023-08-05T18:32:37.424Z,85.04
2023-08-05T18:35:08.513Z,84.99
2023-08-05T18:37:35.376Z,86.54
2023-08-05T18:40:02.082Z,87.77
2023-08-05T18:42:28.566Z,89.01
2023-08-05T18:44:55.308Z,90.54
2023-08-05T18:47:21.983Z,91.29
2023-08-05T18:49:48.679Z,91.26
2023-08-05T18:52:16.084Z,91.28
2023-08-05T18:54:44.350Z,92.18
2023-08-05T18:57:11.077Z,92.27
2023-08-05T18:59:37.709Z,92.68
2023-08-05T19:02:04.673Z,92.59
2023-08-05T19:04:31.219Z,93.42
2023-08-05T19:06:57.853Z,93.12
2023-08-05T19:09:24.464Z,93.49
2023-08-05T19:11:51.623Z,93.75
2023-08-05T19:14:19.586Z,93.72
2023-08-05T19:16:46.116Z,93.67
2023-08-05T19:19:12.694Z,94.20
2023-08-05T19:21:39.770Z,94.33
2023-08-05T19:24:06.358Z,93.97
2023-08-05T19:26:32.915Z,94.27
2023-08-05T19:28:59.527Z,94.67
2023-08-05T19:31:26.150Z,94.80
2023-08-05T19:33:53.317Z,95.36
2023-08-05T19:36:20.551Z,94.70
2023-08-05T19:38:50.085Z,94.54
2023-08-05T19:41:17.175Z,93.62
2023-08-05T19:43:44.051Z,93.89
2023-08-05T19:46:13.358Z,93.09
2023-08-05T19:48:40.972Z,93.48
2023-08-05T19:53:37.340Z,92.88
2023-08-05T19:56:04.247Z,93.13
2023-08-05T19:58:30.969Z,93.55
2023-08-05T20:00:58.541Z,93.38
2023-08-05T20:03:25.670Z,93.46
2023-08-05T20:05:53.697Z,93.60
2023-08-05T20:08:22.182Z,93.76
2023-08-05T20:10:48.819Z,93.61
2023-08-05T20:13:15.965Z,93.70
2023-08-05T20:15:42.829Z,93.78
2023-08-05T20:18:09.447Z,94.02
2023-08-05T20:20:35.958Z,94.10
2023-08-05T20:23:02.415Z,94.71
2023-08-05T20:25:29.104Z,95.02
2023-08-05T20:27:55.904Z,95.22
2023-08-05T20:30:22.497Z,95.17
2023-08-05T20:32:49.333Z,95.43
2023-08-05T20:35:16.361Z,95.56
2023-08-05T20:37:42.983Z,95.85
2023-08-05T20:40:09.987Z,96.25
2023-08-05T20:42:36.506Z,96.38
2023-08-05T20:45:04.329Z,96.51
2023-08-05T20:47:31.008Z,96.87
2023-08-05T20:49:57.656Z,96.93
2023-08-05T20:52:25.094Z,97.24
2023-08-05T20:54:51.833Z,97.28
2023-08-05T20:57:18.546Z,97.32
2023-08-05T20:59:45.305Z,97.18
2023-08-05T21:02:12.118Z,97.49
2023-08-05T21:04:38.657Z,97.57
2023-08-05T21:07:06.115Z,97.39
2023-08-05T21:09:32.693Z,97.28
2023-08-05T21:11:59.504Z,97.53
2023-08-05T21:14:26.016Z,97.40
2023-08-05T21:16:52.827Z,97.96
2023-08-05T21:19:20.527Z,97.94
2023-08-05T21:21:47.397Z,98.08
2023-08-05T21:24:13.974Z,98.08
2023-08-05T21:26:40.550Z,98.37
2023-08-05T21:29:07.858Z,97.72
2023-08-05T21:31:34.675Z,97.75
2023-08-05T21:34:01.412Z,98.02
2023-08-05T21:36:28.060Z,98.17
2023-08-05T21:38:55.761Z,98.33
2023-08-05T21:41:22.325Z,98.57
2023-08-05T21:43:49.377Z,98.51
2023-08-05T21:46:15.986Z,98.92
2023-08-05T21:48:42.528Z,98.83
2023-08-05T21:51:09.177Z,98.77
2023-08-05T21:53:35.704Z,99.04
2023-08-05T21:56:02.299Z,99.00
2023-08-05T21:58:28.869Z,98.86
2023-08-05T22:00:56.205Z,99.08
2023-08-05T22:03:23.946Z,98.90
2023-08-05T22:05:51.469Z,99.07
2023-08-05T22:08:18.069Z,99.01
2023-08-05T22:10:44.605Z,99.18
2023-08-05T22:13:13.612Z,99.25
2023-08-05T22:15:40.202Z,99.30
2023-08-05T22:18:09.219Z,98.94
2023-08-05T22:20:35.799Z,99.37
2023-08-05T22:23:02.335Z,99.40
2023-08-05T22:25:28.820Z,99.39
2023-08-05T22:27:56.667Z,99.53
2023-08-05T22:30:23.227Z,99.76
2023-08-05T22:32:52.271Z,99.56
2023-08-05T22:35:18.875Z,99.32
2023-08-05T22:37:45.389Z,99.75
2023-08-05T22:40:12.553Z,99.81
2023-08-05T22:42:39.354Z,100.00
2023-08-05T22:45:07.105Z,100.00
2023-08-05T22:47:33.622Z,100.00
2023-08-05T22:50:04.293Z,100.00
2023-08-05T22:52:31.122Z,100.00
2023-08-05T22:54:57.787Z,100.00
2023-08-05T22:57:24.267Z,100.00
2023-08-05T22:59:53.746Z,100.00
2023-08-05T23:02:20.526Z,100.00
2023-08-05T23:04:47.282Z,100.00
2023-08-05T23:07:14.184Z,100.00
2023-08-05T23:09:40.762Z,100.00
2023-08-05T23:12:07.968Z,100.00
2023-08-05T23:14:34.614Z,100.00
2023-08-05T23:17:01.160Z,100.00
2023-08-05T23:22:10.716Z,100.00
2023-08-05T23:27:30.819Z,100.00
2023-08-05T23:29:57.388Z,100.00
2023-08-05T23:32:23.964Z,100.00
2023-08-05T23:34:50.622Z,100.00
2023-08-05T23:37:17.280Z,100.00
2023-08-05T23:39:43.965Z,100.00
2023-08-05T23:42:10.980Z,100.00
2023-08-05T23:44:37.602Z,100.00
2023-08-05T23:47:06.464Z,100.00
2023-08-05T23:49:33.400Z,100.00
2023-08-05T23:51:59.970Z,100.00
2023-08-05T23:54:26.517Z,100.00
2023-08-05T23:56:52.987Z,100.00
2023-08-05T23:59:23.431Z,100.00
